sensor_id;sensor_type;location;lat;lon;timestamp;P1;durP1;ratioP1;P2;durP2;ratioP2
81310;SDS011;70779;52.506;5.492;2024-03-06T00:02:06;30.85;;;13.82;;
81310;SDS011;70779;52.506;5.492;2024-03-06T00:04:33;27.50;;;13.45;;
81310;SDS011;70779;52.506;5.492;2024-03-06T00:06:59;30.55;;;14.85;;
81310;SDS011;70779;52.506;5.492;2024-03-06T00:09:26;29.13;;;13.07;;
81310;SDS011;70779;52.506;5.492;2024-03-06T00:11:53;29.13;;;14.57;;
81310;SDS011;70779;52.506;5.492;2024-03-06T00:14:19;27.40;;;14.30;;
81310;SDS011;70779;52.506;5.492;2024-03-06T00:16:47;25.33;;;12.65;;
81310;SDS011;70779;52.506;5.492;2024-03-06T00:19:16;24.48;;;11.88;;
81310;SDS011;70779;52.506;5.492;2024-03-06T00:21:42;30.42;;;13.88;;
81310;SDS011;70779;52.506;5.492;2024-03-06T00:24:09;26.55;;;13.48;;
81310;SDS011;70779;52.506;5.492;2024-03-06T00:26:39;27.52;;;13.10;;
81310;SDS011;70779;52.506;5.492;2024-03-06T00:29:09;25.92;;;13.98;;
81310;SDS011;70779;52.506;5.492;2024-03-06T00:31:36;27.48;;;13.40;;
81310;SDS011;70779;52.506;5.492;2024-03-06T00:34:07;29.60;;;13.93;;
81310;SDS011;70779;52.506;5.492;2024-03-06T00:36:34;29.42;;;14.02;;
81310;SDS011;70779;52.506;5.492;2024-03-06T00:39:00;28.90;;;13.18;;
81310;SDS011;70779;52.506;5.492;2024-03-06T00:41:28;27.35;;;14.93;;
81310;SDS011;70779;52.506;5.492;2024-03-06T00:43:54;28.73;;;13.45;;
81310;SDS011;70779;52.506;5.492;2024-03-06T00:46:21;27.42;;;13.95;;
81310;SDS011;70779;52.506;5.492;2024-03-06T00:48:47;31.85;;;13.52;;
81310;SDS011;70779;52.506;5.492;2024-03-06T00:51:13;28.35;;;14.32;;
81310;SDS011;70779;52.506;5.492;2024-03-06T00:53:40;33.00;;;14.15;;
81310;SDS011;70779;52.506;5.492;2024-03-06T00:56:06;31.95;;;14.10;;
81310;SDS011;70779;52.506;5.492;2024-03-06T00:58:33;33.35;;;15.60;;
81310;SDS011;70779;52.506;5.492;2024-03-06T01:00:59;30.20;;;15.38;;
81310;SDS011;70779;52.506;5.492;2024-03-06T01:03:25;33.75;;;13.45;;
81310;SDS011;70779;52.506;5.492;2024-03-06T01:05:51;29.15;;;14.90;;
81310;SDS011;70779;52.506;5.492;2024-03-06T01:08:23;30.00;;;13.73;;
81310;SDS011;70779;52.506;5.492;2024-03-06T01:10:50;26.25;;;12.85;;
81310;SDS011;70779;52.506;5.492;2024-03-06T01:13:18;29.40;;;15.52;;
81310;SDS011;70779;52.506;5.492;2024-03-06T01:15:44;30.95;;;15.50;;
81310;SDS011;70779;52.506;5.492;2024-03-06T01:18:10;36.20;;;15.75;;
81310;SDS011;70779;52.506;5.492;2024-03-06T01:20:36;29.08;;;14.75;;
81310;SDS011;70779;52.506;5.492;2024-03-06T01:23:03;33.00;;;15.10;;
81310;SDS011;70779;52.506;5.492;2024-03-06T01:25:29;30.13;;;15.10;;
81310;SDS011;70779;52.506;5.492;2024-03-06T01:27:55;33.20;;;14.98;;
81310;SDS011;70779;52.506;5.492;2024-03-06T01:30:21;30.30;;;15.48;;
81310;SDS011;70779;52.506;5.492;2024-03-06T01:32:48;29.70;;;15.05;;
81310;SDS011;70779;52.506;5.492;2024-03-06T01:35:14;31.27;;;15.55;;
81310;SDS011;70779;52.506;5.492;2024-03-06T01:37:40;33.88;;;15.98;;
81310;SDS011;70779;52.506;5.492;2024-03-06T01:40:06;32.78;;;15.10;;
81310;SDS011;70779;52.506;5.492;2024-03-06T01:42:34;30.30;;;14.32;;
81310;SDS011;70779;52.506;5.492;2024-03-06T01:45:01;29.48;;;15.82;;
81310;SDS011;70779;52.506;5.492;2024-03-06T01:47:28;29.23;;;14.93;;
81310;SDS011;70779;52.506;5.492;2024-03-06T01:49:54;33.92;;;15.95;;
81310;SDS011;70779;52.506;5.492;2024-03-06T01:52:20;32.50;;;16.52;;
81310;SDS011;70779;52.506;5.492;2024-03-06T01:54:47;32.85;;;15.45;;
81310;SDS011;70779;52.506;5.492;2024-03-06T01:57:15;29.30;;;14.05;;
81310;SDS011;70779;52.506;5.492;2024-03-06T01:59:42;30.15;;;15.88;;
81310;SDS011;70779;52.506;5.492;2024-03-06T02:02:09;33.55;;;15.57;;
81310;SDS011;70779;52.506;5.492;2024-03-06T02:04:37;32.55;;;15.15;;
81310;SDS011;70779;52.506;5.492;2024-03-06T02:07:04;35.97;;;15.93;;
81310;SDS011;70779;52.506;5.492;2024-03-06T02:09:36;35.08;;;16.70;;
81310;SDS011;70779;52.506;5.492;2024-03-06T02:12:03;30.08;;;14.63;;
81310;SDS011;70779;52.506;5.492;2024-03-06T02:14:29;33.10;;;16.55;;
81310;SDS011;70779;52.506;5.492;2024-03-06T02:16:56;35.00;;;17.42;;
81310;SDS011;70779;52.506;5.492;2024-03-06T02:19:22;35.45;;;15.98;;
81310;SDS011;70779;52.506;5.492;2024-03-06T02:21:48;32.75;;;15.30;;
81310;SDS011;70779;52.506;5.492;2024-03-06T02:24:14;34.40;;;17.58;;
81310;SDS011;70779;52.506;5.492;2024-03-06T02:26:40;33.88;;;15.82;;
81310;SDS011;70779;52.506;5.492;2024-03-06T02:29:08;36.17;;;17.00;;
81310;SDS011;70779;52.506;5.492;2024-03-06T02:31:35;33.58;;;16.58;;
81310;SDS011;70779;52.506;5.492;2024-03-06T02:34:01;36.15;;;16.35;;
81310;SDS011;70779;52.506;5.492;2024-03-06T02:36:31;33.47;;;16.23;;
81310;SDS011;70779;52.506;5.492;2024-03-06T02:38:57;35.28;;;17.23;;
81310;SDS011;70779;52.506;5.492;2024-03-06T02:41:24;34.05;;;16.60;;
81310;SDS011;70779;52.506;5.492;2024-03-06T02:43:50;35.17;;;16.42;;
81310;SDS011;70779;52.506;5.492;2024-03-06T02:46:16;37.88;;;16.42;;
81310;SDS011;70779;52.506;5.492;2024-03-06T02:48:42;37.45;;;16.10;;
81310;SDS011;70779;52.506;5.492;2024-03-06T02:51:08;38.53;;;16.35;;
81310;SDS011;70779;52.506;5.492;2024-03-06T02:53:34;37.70;;;18.35;;
81310;SDS011;70779;52.506;5.492;2024-03-06T02:56:00;32.88;;;15.25;;
81310;SDS011;70779;52.506;5.492;2024-03-06T02:58:26;36.00;;;16.60;;
81310;SDS011;70779;52.506;5.492;2024-03-06T03:00:56;33.70;;;14.88;;
81310;SDS011;70779;52.506;5.492;2024-03-06T03:03:22;37.03;;;17.40;;
81310;SDS011;70779;52.506;5.492;2024-03-06T03:05:50;42.40;;;17.05;;
81310;SDS011;70779;52.506;5.492;2024-03-06T03:08:16;40.13;;;17.13;;
81310;SDS011;70779;52.506;5.492;2024-03-06T03:10:42;37.13;;;16.85;;
81310;SDS011;70779;52.506;5.492;2024-03-06T03:13:10;39.50;;;17.42;;
81310;SDS011;70779;52.506;5.492;2024-03-06T03:15:36;33.70;;;16.50;;
81310;SDS011;70779;52.506;5.492;2024-03-06T03:18:02;38.05;;;16.70;;
81310;SDS011;70779;52.506;5.492;2024-03-06T03:20:28;34.97;;;18.02;;
81310;SDS011;70779;52.506;5.492;2024-03-06T03:22:54;43.38;;;19.60;;
81310;SDS011;70779;52.506;5.492;2024-03-06T03:25:20;40.00;;;17.58;;
81310;SDS011;70779;52.506;5.492;2024-03-06T03:27:47;42.38;;;19.33;;
81310;SDS011;70779;52.506;5.492;2024-03-06T03:30:14;37.53;;;18.35;;
81310;SDS011;70779;52.506;5.492;2024-03-06T03:32:41;45.40;;;18.65;;
81310;SDS011;70779;52.506;5.492;2024-03-06T03:35:07;41.63;;;19.70;;
81310;SDS011;70779;52.506;5.492;2024-03-06T03:37:34;41.17;;;19.08;;
81310;SDS011;70779;52.506;5.492;2024-03-06T03:40:00;41.08;;;17.63;;
81310;SDS011;70779;52.506;5.492;2024-03-06T03:42:26;51.13;;;20.27;;
81310;SDS011;70779;52.506;5.492;2024-03-06T03:44:52;45.15;;;19.25;;
81310;SDS011;70779;52.506;5.492;2024-03-06T03:47:18;42.05;;;19.65;;
81310;SDS011;70779;52.506;5.492;2024-03-06T03:49:44;49.97;;;19.45;;
81310;SDS011;70779;52.506;5.492;2024-03-06T03:52:10;46.63;;;20.35;;
81310;SDS011;70779;52.506;5.492;2024-03-06T03:54:37;50.67;;;20.85;;
81310;SDS011;70779;52.506;5.492;2024-03-06T03:57:03;48.92;;;20.13;;
81310;SDS011;70779;52.506;5.492;2024-03-06T03:59:29;49.15;;;22.30;;
81310;SDS011;70779;52.506;5.492;2024-03-06T04:01:56;52.05;;;22.10;;
81310;SDS011;70779;52.506;5.492;2024-03-06T04:04:23;58.40;;;22.42;;
81310;SDS011;70779;52.506;5.492;2024-03-06T04:06:49;50.72;;;22.88;;
81310;SDS011;70779;52.506;5.492;2024-03-06T04:09:15;55.58;;;23.02;;
81310;SDS011;70779;52.506;5.492;2024-03-06T04:11:41;50.20;;;22.30;;
81310;SDS011;70779;52.506;5.492;2024-03-06T04:14:07;49.55;;;21.05;;
81310;SDS011;70779;52.506;5.492;2024-03-06T04:16:34;54.47;;;22.88;;
81310;SDS011;70779;52.506;5.492;2024-03-06T04:19:00;48.10;;;20.63;;
81310;SDS011;70779;52.506;5.492;2024-03-06T04:21:27;51.58;;;22.83;;
81310;SDS011;70779;52.506;5.492;2024-03-06T04:23:53;56.33;;;23.08;;
81310;SDS011;70779;52.506;5.492;2024-03-06T04:26:19;50.97;;;21.85;;
81310;SDS011;70779;52.506;5.492;2024-03-06T04:28:45;49.65;;;20.33;;
81310;SDS011;70779;52.506;5.492;2024-03-06T04:31:12;54.72;;;22.95;;
81310;SDS011;70779;52.506;5.492;2024-03-06T04:33:38;52.38;;;21.00;;
81310;SDS011;70779;52.506;5.492;2024-03-06T04:36:07;54.17;;;21.55;;
81310;SDS011;70779;52.506;5.492;2024-03-06T04:38:34;56.70;;;23.27;;
81310;SDS011;70779;52.506;5.492;2024-03-06T04:41:00;49.25;;;21.83;;
81310;SDS011;70779;52.506;5.492;2024-03-06T04:43:26;52.83;;;20.20;;
81310;SDS011;70779;52.506;5.492;2024-03-06T04:45:52;54.60;;;21.00;;
81310;SDS011;70779;52.506;5.492;2024-03-06T04:48:18;56.25;;;20.83;;
81310;SDS011;70779;52.506;5.492;2024-03-06T04:50:44;59.53;;;21.73;;
81310;SDS011;70779;52.506;5.492;2024-03-06T04:53:10;57.58;;;21.23;;
81310;SDS011;70779;52.506;5.492;2024-03-06T04:55:37;66.30;;;22.30;;
81310;SDS011;70779;52.506;5.492;2024-03-06T04:58:03;60.17;;;20.58;;
81310;SDS011;70779;52.506;5.492;2024-03-06T05:00:30;60.85;;;20.20;;
81310;SDS011;70779;52.506;5.492;2024-03-06T05:02:56;64.53;;;20.63;;
81310;SDS011;70779;52.506;5.492;2024-03-06T05:05:23;55.63;;;21.95;;
81310;SDS011;70779;52.506;5.492;2024-03-06T05:07:50;60.33;;;22.27;;
81310;SDS011;70779;52.506;5.492;2024-03-06T05:10:17;56.80;;;21.67;;
81310;SDS011;70779;52.506;5.492;2024-03-06T05:12:43;54.55;;;20.33;;
81310;SDS011;70779;52.506;5.492;2024-03-06T05:15:10;56.13;;;19.65;;
81310;SDS011;70779;52.506;5.492;2024-03-06T05:17:37;55.13;;;17.73;;
81310;SDS011;70779;52.506;5.492;2024-03-06T05:20:03;44.35;;;17.13;;
81310;SDS011;70779;52.506;5.492;2024-03-06T05:22:29;52.20;;;19.60;;
81310;SDS011;70779;52.506;5.492;2024-03-06T05:24:56;55.40;;;16.23;;
81310;SDS011;70779;52.506;5.492;2024-03-06T05:27:23;317.75;;;19.90;;
81310;SDS011;70779;52.506;5.492;2024-03-06T05:29:50;299.02;;;20.20;;
81310;SDS011;70779;52.506;5.492;2024-03-06T05:32:16;250.43;;;23.13;;
81310;SDS011;70779;52.506;5.492;2024-03-06T05:34:42;345.58;;;21.70;;
81310;SDS011;70779;52.506;5.492;2024-03-06T05:37:10;254.13;;;20.52;;
81310;SDS011;70779;52.506;5.492;2024-03-06T05:39:36;119.72;;;15.68;;
81310;SDS011;70779;52.506;5.492;2024-03-06T05:42:06;244.00;;;20.05;;
81310;SDS011;70779;52.506;5.492;2024-03-06T05:44:32;112.78;;;14.95;;
81310;SDS011;70779;52.506;5.492;2024-03-06T05:46:59;247.45;;;17.80;;
81310;SDS011;70779;52.506;5.492;2024-03-06T05:49:29;209.18;;;17.33;;
81310;SDS011;70779;52.506;5.492;2024-03-06T05:51:56;173.23;;;16.33;;
81310;SDS011;70779;52.506;5.492;2024-03-06T05:54:22;303.33;;;19.60;;
81310;SDS011;70779;52.506;5.492;2024-03-06T05:56:49;205.85;;;16.35;;
81310;SDS011;70779;52.506;5.492;2024-03-06T05:59:17;120.13;;;15.50;;
81310;SDS011;70779;52.506;5.492;2024-03-06T06:01:44;189.65;;;15.27;;
81310;SDS011;70779;52.506;5.492;2024-03-06T06:04:10;106.32;;;16.63;;
81310;SDS011;70779;52.506;5.492;2024-03-06T06:06:39;121.72;;;19.75;;
81310;SDS011;70779;52.506;5.492;2024-03-06T06:09:05;112.68;;;20.70;;
81310;SDS011;70779;52.506;5.492;2024-03-06T06:11:32;271.63;;;26.95;;
81310;SDS011;70779;52.506;5.492;2024-03-06T06:13:59;225.52;;;25.67;;
81310;SDS011;70779;52.506;5.492;2024-03-06T06:16:25;242.77;;;25.35;;
81310;SDS011;70779;52.506;5.492;2024-03-06T06:18:51;336.75;;;29.42;;
81310;SDS011;70779;52.506;5.492;2024-03-06T06:21:18;317.58;;;26.17;;
81310;SDS011;70779;52.506;5.492;2024-03-06T06:23:44;410.65;;;27.92;;
81310;SDS011;70779;52.506;5.492;2024-03-06T06:26:11;223.05;;;24.38;;
81310;SDS011;70779;52.506;5.492;2024-03-06T06:28:40;220.98;;;25.70;;
81310;SDS011;70779;52.506;5.492;2024-03-06T06:31:06;225.18;;;24.58;;
81310;SDS011;70779;52.506;5.492;2024-03-06T06:33:32;205.05;;;25.13;;
81310;SDS011;70779;52.506;5.492;2024-03-06T06:35:59;130.25;;;25.02;;
81310;SDS011;70779;52.506;5.492;2024-03-06T06:38:25;112.55;;;25.48;;
81310;SDS011;70779;52.506;5.492;2024-03-06T06:40:51;130.35;;;25.30;;
81310;SDS011;70779;52.506;5.492;2024-03-06T06:43:18;114.13;;;25.25;;
81310;SDS011;70779;52.506;5.492;2024-03-06T06:45:44;99.68;;;25.23;;
81310;SDS011;70779;52.506;5.492;2024-03-06T06:48:10;129.95;;;24.58;;
81310;SDS011;70779;52.506;5.492;2024-03-06T06:50:36;71.20;;;21.35;;
81310;SDS011;70779;52.506;5.492;2024-03-06T06:53:03;86.05;;;22.80;;
81310;SDS011;70779;52.506;5.492;2024-03-06T06:55:29;61.67;;;23.48;;
81310;SDS011;70779;52.506;5.492;2024-03-06T06:57:55;73.35;;;22.33;;
81310;SDS011;70779;52.506;5.492;2024-03-06T07:00:21;82.97;;;21.25;;
81310;SDS011;70779;52.506;5.492;2024-03-06T07:02:48;102.82;;;20.77;;
81310;SDS011;70779;52.506;5.492;2024-03-06T07:05:15;71.13;;;21.55;;
81310;SDS011;70779;52.506;5.492;2024-03-06T07:07:41;112.03;;;23.50;;
81310;SDS011;70779;52.506;5.492;2024-03-06T07:10:07;121.22;;;22.45;;
81310;SDS011;70779;52.506;5.492;2024-03-06T07:12:34;86.65;;;20.35;;
81310;SDS011;70779;52.506;5.492;2024-03-06T07:15:01;72.43;;;18.17;;
81310;SDS011;70779;52.506;5.492;2024-03-06T07:17:28;92.90;;;22.10;;
81310;SDS011;70779;52.506;5.492;2024-03-06T07:19:54;102.03;;;20.85;;
81310;SDS011;70779;52.506;5.492;2024-03-06T07:22:21;130.52;;;19.70;;
81310;SDS011;70779;52.506;5.492;2024-03-06T07:24:48;117.93;;;21.70;;
81310;SDS011;70779;52.506;5.492;2024-03-06T07:27:14;133.60;;;21.58;;
81310;SDS011;70779;52.506;5.492;2024-03-06T07:29:40;115.80;;;18.98;;
81310;SDS011;70779;52.506;5.492;2024-03-06T07:32:06;109.03;;;20.42;;
81310;SDS011;70779;52.506;5.492;2024-03-06T07:34:32;110.68;;;18.40;;
81310;SDS011;70779;52.506;5.492;2024-03-06T07:36:59;79.05;;;15.90;;
81310;SDS011;70779;52.506;5.492;2024-03-06T07:39:25;76.72;;;20.45;;
81310;SDS011;70779;52.506;5.492;2024-03-06T07:41:51;80.82;;;15.77;;
81310;SDS011;70779;52.506;5.492;2024-03-06T07:44:18;88.95;;;19.95;;
81310;SDS011;70779;52.506;5.492;2024-03-06T07:46:45;94.75;;;19.48;;
81310;SDS011;70779;52.506;5.492;2024-03-06T07:49:12;108.43;;;22.45;;
81310;SDS011;70779;52.506;5.492;2024-03-06T07:51:38;84.32;;;21.15;;
81310;SDS011;70779;52.506;5.492;2024-03-06T07:54:06;58.45;;;17.23;;
81310;SDS011;70779;52.506;5.492;2024-03-06T07:56:32;65.40;;;19.98;;
81310;SDS011;70779;52.506;5.492;2024-03-06T07:58:59;44.47;;;17.95;;
81310;SDS011;70779;52.506;5.492;2024-03-06T08:01:26;43.03;;;17.48;;
81310;SDS011;70779;52.506;5.492;2024-03-06T08:03:54;41.20;;;19.77;;
81310;SDS011;70779;52.506;5.492;2024-03-06T08:06:20;36.60;;;17.45;;
81310;SDS011;70779;52.506;5.492;2024-03-06T08:08:47;35.03;;;18.20;;
81310;SDS011;70779;52.506;5.492;2024-03-06T08:11:13;25.50;;;12.32;;
81310;SDS011;70779;52.506;5.492;2024-03-06T08:13:39;17.35;;;8.23;;
81310;SDS011;70779;52.506;5.492;2024-03-06T08:16:06;51.15;;;16.50;;
81310;SDS011;70779;52.506;5.492;2024-03-06T08:18:33;35.35;;;16.48;;
81310;SDS011;70779;52.506;5.492;2024-03-06T08:21:03;31.88;;;15.73;;
81310;SDS011;70779;52.506;5.492;2024-03-06T08:23:31;25.38;;;14.80;;
81310;SDS011;70779;52.506;5.492;2024-03-06T08:25:58;26.08;;;16.38;;
81310;SDS011;70779;52.506;5.492;2024-03-06T08:28:25;26.88;;;14.70;;
81310;SDS011;70779;52.506;5.492;2024-03-06T08:30:52;24.65;;;13.65;;
81310;SDS011;70779;52.506;5.492;2024-03-06T08:33:18;17.17;;;9.98;;
81310;SDS011;70779;52.506;5.492;2024-03-06T08:35:46;26.55;;;14.30;;
81310;SDS011;70779;52.506;5.492;2024-03-06T08:38:12;26.23;;;14.18;;
81310;SDS011;70779;52.506;5.492;2024-03-06T08:40:38;26.33;;;13.73;;
81310;SDS011;70779;52.506;5.492;2024-03-06T08:43:06;26.38;;;13.40;;
81310;SDS011;70779;52.506;5.492;2024-03-06T08:45:34;31.13;;;14.90;;
81310;SDS011;70779;52.506;5.492;2024-03-06T08:48:00;27.90;;;16.35;;
81310;SDS011;70779;52.506;5.492;2024-03-06T08:50:26;29.15;;;15.25;;
81310;SDS011;70779;52.506;5.492;2024-03-06T08:52:52;28.08;;;14.60;;
81310;SDS011;70779;52.506;5.492;2024-03-06T08:55:19;28.52;;;15.43;;
81310;SDS011;70779;52.506;5.492;2024-03-06T08:57:45;26.33;;;14.73;;
81310;SDS011;70779;52.506;5.492;2024-03-06T09:00:11;22.40;;;12.20;;
81310;SDS011;70779;52.506;5.492;2024-03-06T09:02:37;29.67;;;15.40;;
81310;SDS011;70779;52.506;5.492;2024-03-06T09:05:05;25.95;;;13.77;;
81310;SDS011;70779;52.506;5.492;2024-03-06T09:07:32;23.60;;;14.20;;
81310;SDS011;70779;52.506;5.492;2024-03-06T09:10:03;27.60;;;14.98;;
81310;SDS011;70779;52.506;5.492;2024-03-06T09:12:31;26.85;;;13.95;;
81310;SDS011;70779;52.506;5.492;2024-03-06T09:14:57;28.73;;;15.60;;
81310;SDS011;70779;52.506;5.492;2024-03-06T09:17:26;23.17;;;13.95;;
81310;SDS011;70779;52.506;5.492;2024-03-06T09:19:52;25.08;;;13.50;;
81310;SDS011;70779;52.506;5.492;2024-03-06T09:22:19;26.60;;;15.98;;
81310;SDS011;70779;52.506;5.492;2024-03-06T09:24:45;28.83;;;15.43;;
81310;SDS011;70779;52.506;5.492;2024-03-06T09:27:12;23.08;;;14.63;;
81310;SDS011;70779;52.506;5.492;2024-03-06T09:29:39;22.10;;;14.05;;
81310;SDS011;70779;52.506;5.492;2024-03-06T09:32:06;19.55;;;12.40;;
81310;SDS011;70779;52.506;5.492;2024-03-06T09:34:32;22.08;;;13.27;;
81310;SDS011;70779;52.506;5.492;2024-03-06T09:36:58;22.42;;;13.40;;
81310;SDS011;70779;52.506;5.492;2024-03-06T09:39:25;18.15;;;11.95;;
81310;SDS011;70779;52.506;5.492;2024-03-06T09:41:51;19.15;;;13.00;;
81310;SDS011;70779;52.506;5.492;2024-03-06T09:44:19;20.95;;;13.65;;
81310;SDS011;70779;52.506;5.492;2024-03-06T09:46:47;20.63;;;13.52;;
81310;SDS011;70779;52.506;5.492;2024-03-06T09:49:15;21.15;;;13.25;;
81310;SDS011;70779;52.506;5.492;2024-03-06T09:51:44;21.58;;;13.60;;
81310;SDS011;70779;52.506;5.492;2024-03-06T09:54:11;18.23;;;12.00;;
81310;SDS011;70779;52.506;5.492;2024-03-06T09:56:42;19.05;;;13.27;;
81310;SDS011;70779;52.506;5.492;2024-03-06T09:59:09;17.15;;;11.95;;
81310;SDS011;70779;52.506;5.492;2024-03-06T10:01:39;14.43;;;9.40;;
81310;SDS011;70779;52.506;5.492;2024-03-06T10:04:17;18.75;;;13.10;;
81310;SDS011;70779;52.506;5.492;2024-03-06T10:06:45;16.38;;;12.68;;
81310;SDS011;70779;52.506;5.492;2024-03-06T10:09:12;19.00;;;11.85;;
81310;SDS011;70779;52.506;5.492;2024-03-06T10:11:41;17.23;;;12.32;;
81310;SDS011;70779;52.506;5.492;2024-03-06T10:14:08;17.55;;;13.02;;
81310;SDS011;70779;52.506;5.492;2024-03-06T10:16:35;18.73;;;11.85;;
81310;SDS011;70779;52.506;5.492;2024-03-06T10:19:15;19.30;;;12.85;;
81310;SDS011;70779;52.506;5.492;2024-03-06T10:21:46;18.13;;;12.05;;
81310;SDS011;70779;52.506;5.492;2024-03-06T10:24:20;18.52;;;13.50;;
81310;SDS011;70779;52.506;5.492;2024-03-06T10:26:49;16.75;;;11.15;;
81310;SDS011;70779;52.506;5.492;2024-03-06T10:29:20;17.90;;;12.07;;
81310;SDS011;70779;52.506;5.492;2024-03-06T10:31:51;18.65;;;12.77;;
81310;SDS011;70779;52.506;5.492;2024-03-06T10:34:18;20.25;;;14.25;;
81310;SDS011;70779;52.506;5.492;2024-03-06T10:36:45;16.50;;;12.15;;
81310;SDS011;70779;52.506;5.492;2024-03-06T10:39:23;19.98;;;14.45;;
81310;SDS011;70779;52.506;5.492;2024-03-06T10:41:53;20.90;;;14.07;;
81310;SDS011;70779;52.506;5.492;2024-03-06T10:44:24;19.52;;;13.32;;
81310;SDS011;70779;52.506;5.492;2024-03-06T10:46:55;16.63;;;12.18;;
81310;SDS011;70779;52.506;5.492;2024-03-06T10:49:27;18.75;;;11.98;;
81310;SDS011;70779;52.506;5.492;2024-03-06T10:51:57;19.15;;;12.63;;
81310;SDS011;70779;52.506;5.492;2024-03-06T10:54:27;18.13;;;11.85;;
81310;SDS011;70779;52.506;5.492;2024-03-06T10:56:55;22.50;;;12.65;;
81310;SDS011;70779;52.506;5.492;2024-03-06T10:59:24;15.25;;;8.73;;
81310;SDS011;70779;52.506;5.492;2024-03-06T11:01:57;16.90;;;11.80;;
81310;SDS011;70779;52.506;5.492;2024-03-06T11:04:26;19.42;;;11.68;;
81310;SDS011;70779;52.506;5.492;2024-03-06T11:06:57;21.00;;;10.38;;
81310;SDS011;70779;52.506;5.492;2024-03-06T11:09:28;19.13;;;11.23;;
81310;SDS011;70779;52.506;5.492;2024-03-06T11:12:01;19.52;;;12.52;;
81310;SDS011;70779;52.506;5.492;2024-03-06T11:14:30;17.02;;;9.63;;
81310;SDS011;70779;52.506;5.492;2024-03-06T11:19:30;19.58;;;11.60;;
81310;SDS011;70779;52.506;5.492;2024-03-06T11:21:57;17.58;;;10.73;;
81310;SDS011;70779;52.506;5.492;2024-03-06T11:24:33;21.58;;;12.73;;
81310;SDS011;70779;52.506;5.492;2024-03-06T11:27:00;19.58;;;12.60;;
81310;SDS011;70779;52.506;5.492;2024-03-06T11:29:29;19.15;;;12.77;;
81310;SDS011;70779;52.506;5.492;2024-03-06T11:32:16;19.65;;;10.98;;
81310;SDS011;70779;52.506;5.492;2024-03-06T11:34:43;20.10;;;10.98;;
81310;SDS011;70779;52.506;5.492;2024-03-06T11:37:09;19.00;;;11.52;;
81310;SDS011;70779;52.506;5.492;2024-03-06T11:39:36;18.88;;;11.15;;
81310;SDS011;70779;52.506;5.492;2024-03-06T11:42:03;19.65;;;12.10;;
81310;SDS011;70779;52.506;5.492;2024-03-06T11:44:31;18.60;;;11.00;;
81310;SDS011;70779;52.506;5.492;2024-03-06T11:46:59;19.80;;;12.07;;
81310;SDS011;70779;52.506;5.492;2024-03-06T11:49:27;16.83;;;10.63;;
81310;SDS011;70779;52.506;5.492;2024-03-06T11:52:01;20.33;;;11.02;;
81310;SDS011;70779;52.506;5.492;2024-03-06T11:54:29;18.92;;;11.23;;
81310;SDS011;70779;52.506;5.492;2024-03-06T11:56:57;18.05;;;11.20;;
81310;SDS011;70779;52.506;5.492;2024-03-06T11:59:30;18.23;;;11.75;;
81310;SDS011;70779;52.506;5.492;2024-03-06T12:02:01;18.83;;;12.55;;
81310;SDS011;70779;52.506;5.492;2024-03-06T12:04:31;19.88;;;12.43;;
81310;SDS011;70779;52.506;5.492;2024-03-06T12:07:00;19.48;;;12.07;;
81310;SDS011;70779;52.506;5.492;2024-03-06T12:12:01;15.90;;;10.05;;
81310;SDS011;70779;52.506;5.492;2024-03-06T12:14:27;18.90;;;11.40;;
81310;SDS011;70779;52.506;5.492;2024-03-06T12:16:57;17.08;;;10.00;;
81310;SDS011;70779;52.506;5.492;2024-03-06T12:19:27;18.60;;;11.77;;
81310;SDS011;70779;52.506;5.492;2024-03-06T12:22:00;15.93;;;9.32;;
81310;SDS011;70779;52.506;5.492;2024-03-06T12:24:29;17.95;;;11.48;;
81310;SDS011;70779;52.506;5.492;2024-03-06T12:27:02;14.65;;;9.90;;
81310;SDS011;70779;52.506;5.492;2024-03-06T12:29:30;12.10;;;7.90;;
81310;SDS011;70779;52.506;5.492;2024-03-06T12:31:58;14.20;;;8.63;;
81310;SDS011;70779;52.506;5.492;2024-03-06T12:34:24;15.95;;;10.43;;
81310;SDS011;70779;52.506;5.492;2024-03-06T12:36:51;15.10;;;9.07;;
81310;SDS011;70779;52.506;5.492;2024-03-06T12:39:17;16.45;;;9.05;;
81310;SDS011;70779;52.506;5.492;2024-03-06T12:41:47;16.40;;;9.52;;
81310;SDS011;70779;52.506;5.492;2024-03-06T12:44:13;17.33;;;10.68;;
81310;SDS011;70779;52.506;5.492;2024-03-06T12:46:40;18.92;;;10.65;;
81310;SDS011;70779;52.506;5.492;2024-03-06T12:49:07;15.50;;;10.00;;
81310;SDS011;70779;52.506;5.492;2024-03-06T12:51:33;12.50;;;8.10;;
81310;SDS011;70779;52.506;5.492;2024-03-06T12:54:00;15.40;;;9.32;;
81310;SDS011;70779;52.506;5.492;2024-03-06T12:56:26;16.80;;;9.30;;
81310;SDS011;70779;52.506;5.492;2024-03-06T12:58:52;14.13;;;8.93;;
81310;SDS011;70779;52.506;5.492;2024-03-06T13:01:18;17.30;;;9.88;;
81310;SDS011;70779;52.506;5.492;2024-03-06T13:03:45;16.75;;;9.90;;
81310;SDS011;70779;52.506;5.492;2024-03-06T13:06:12;16.95;;;10.63;;
81310;SDS011;70779;52.506;5.492;2024-03-06T13:08:38;18.55;;;10.77;;
81310;SDS011;70779;52.506;5.492;2024-03-06T13:11:04;14.80;;;8.90;;
81310;SDS011;70779;52.506;5.492;2024-03-06T13:13:30;14.45;;;9.30;;
81310;SDS011;70779;52.506;5.492;2024-03-06T13:15:59;14.90;;;10.23;;
81310;SDS011;70779;52.506;5.492;2024-03-06T13:18:25;15.52;;;9.40;;
81310;SDS011;70779;52.506;5.492;2024-03-06T13:20:51;15.13;;;8.73;;
81310;SDS011;70779;52.506;5.492;2024-03-06T13:23:18;14.10;;;10.02;;
81310;SDS011;70779;52.506;5.492;2024-03-06T13:25:44;15.25;;;9.73;;
81310;SDS011;70779;52.506;5.492;2024-03-06T13:28:11;15.98;;;9.15;;
81310;SDS011;70779;52.506;5.492;2024-03-06T13:30:38;16.17;;;9.45;;
81310;SDS011;70779;52.506;5.492;2024-03-06T13:33:04;17.67;;;10.13;;
81310;SDS011;70779;52.506;5.492;2024-03-06T13:35:31;16.70;;;10.43;;
81310;SDS011;70779;52.506;5.492;2024-03-06T13:37:57;17.92;;;10.13;;
81310;SDS011;70779;52.506;5.492;2024-03-06T13:40:23;18.75;;;9.73;;
81310;SDS011;70779;52.506;5.492;2024-03-06T13:42:51;18.95;;;10.48;;
81310;SDS011;70779;52.506;5.492;2024-03-06T13:45:17;19.25;;;10.85;;
81310;SDS011;70779;52.506;5.492;2024-03-06T13:47:44;19.90;;;11.38;;
81310;SDS011;70779;52.506;5.492;2024-03-06T13:50:11;17.25;;;9.15;;
81310;SDS011;70779;52.506;5.492;2024-03-06T13:52:38;14.77;;;8.02;;
81310;SDS011;70779;52.506;5.492;2024-03-06T13:55:09;14.85;;;8.18;;
81310;SDS011;70779;52.506;5.492;2024-03-06T13:57:36;18.23;;;8.88;;
81310;SDS011;70779;52.506;5.492;2024-03-06T14:00:03;13.18;;;8.93;;
81310;SDS011;70779;52.506;5.492;2024-03-06T14:02:45;16.52;;;8.55;;
81310;SDS011;70779;52.506;5.492;2024-03-06T14:05:12;12.75;;;8.77;;
81310;SDS011;70779;52.506;5.492;2024-03-06T14:07:40;14.52;;;9.10;;
81310;SDS011;70779;52.506;5.492;2024-03-06T14:10:06;16.35;;;7.90;;
81310;SDS011;70779;52.506;5.492;2024-03-06T14:12:34;11.82;;;7.85;;
81310;SDS011;70779;52.506;5.492;2024-03-06T14:15:01;15.07;;;8.73;;
81310;SDS011;70779;52.506;5.492;2024-03-06T14:17:29;12.23;;;8.23;;
81310;SDS011;70779;52.506;5.492;2024-03-06T14:19:55;14.63;;;8.30;;
81310;SDS011;70779;52.506;5.492;2024-03-06T14:22:21;14.02;;;7.75;;
81310;SDS011;70779;52.506;5.492;2024-03-06T14:24:48;14.20;;;8.23;;
81310;SDS011;70779;52.506;5.492;2024-03-06T14:27:14;14.95;;;10.20;;